Time;durP1;ratioP1;P1;durP2;ratioP2;P2;SDS_P1;SDS_P2;PMS_P1;PMS_P2;Temp;Humidity;BMP_temperature;BMP_pressure;BME280_temperature;BME280_humidity;BME280_pressure;Samples;Min_cycle;Max_cycle;Signal;HPM_P1;HPM_P2
2023/05/23 00:00:58;;;;;;;6.47;3.72;;;17.00;99.90;;;;;;5074648;28;20045;-46
2023/05/23 00:03:24;;;;;;;4.72;3.38;;;17.00;99.90;;;;;;5089359;28;20032;-47
2023/05/23 00:05:50;;;;;;;5.85;3.65;;;17.00;99.90;;;;;;5088877;28;20412;-46
2023/05/23 00:08:16;;;;;;;6.05;3.47;;;17.10;99.90;;;;;;5071868;28;20032;-44
2023/05/23 00:10:43;;;;;;;7.63;3.17;;;17.10;99.90;;;;;;5074148;28;20103;-46
2023/05/23 00:13:11;;;;;;;3.88;2.70;;;17.10;99.90;;;;;;5070140;28;20033;-46
2023/05/23 00:15:37;;;;;;;4.47;3.20;;;17.00;99.90;;;;;;5040230;28;20403;-44
2023/05/23 00:18:04;;;;;;;4.88;3.08;;;16.90;99.90;;;;;;5073728;28;20029;-46
2023/05/23 00:20:29;;;;;;;5.32;3.47;;;16.80;99.90;;;;;;5068356;28;20043;-46
2023/05/23 00:22:58;;;;;;;3.60;2.85;;;16.70;99.90;;;;;;5068363;28;20033;-44
2023/05/23 00:25:24;;;;;;;6.03;3.67;;;16.70;99.90;;;;;;5072818;28;20458;-46
2023/05/23 00:27:50;;;;;;;5.13;3.47;;;16.70;99.90;;;;;;5021492;28;20065;-45
2023/05/23 00:30:16;;;;;;;4.70;3.50;;;16.70;99.90;;;;;;5068902;28;20217;-46
2023/05/23 00:32:42;;;;;;;4.30;3.10;;;16.70;99.90;;;;;;5066923;28;20029;-46
2023/05/23 00:35:08;;;;;;;5.35;3.70;;;16.70;99.90;;;;;;5054467;28;20119;-46
2023/05/23 00:37:34;;;;;;;5.30;3.55;;;16.70;99.90;;;;;;5046956;28;20041;-45
2023/05/23 00:39:59;;;;;;;5.03;3.40;;;16.80;99.90;;;;;;5069105;28;20043;-46
2023/05/23 00:42:25;;;;;;;4.80;3.30;;;16.90;99.90;;;;;;5063353;28;20035;-46
2023/05/23 00:44:51;;;;;;;5.47;3.75;;;16.90;99.90;;;;;;5052676;28;20044;-44
2023/05/23 00:47:17;;;;;;;5.15;3.35;;;17.00;99.90;;;;;;5051733;28;20381;-44
2023/05/23 00:49:46;;;;;;;5.05;3.50;;;17.00;99.90;;;;;;5070976;28;20087;-45
2023/05/23 00:52:14;;;;;;;6.88;3.97;;;17.00;99.90;;;;;;5038292;28;20047;-45
2023/05/23 00:54:40;;;;;;;4.72;3.05;;;;;;;;;;5071898;28;20182;-43
2023/05/23 00:57:06;;;;;;;5.85;4.00;;;;;;;;;;5068565;28;20064;-44
2023/05/23 00:59:33;;;;;;;7.25;3.53;;;;;;;;;;5074165;28;20045;-44
2023/05/23 01:02:00;;;;;;;5.43;3.47;;;;;;;;;;5070531;28;20048;-45
2023/05/23 01:04:27;;;;;;;5.40;4.10;;;;;;;;;;5072355;28;20029;-46
2023/05/23 01:06:56;;;;;;;5.72;3.70;;;;;;;;;;5073112;28;20040;-45
2023/05/23 01:09:24;;;;;;;5.90;3.80;;;16.10;99.90;;;;;;5073073;28;20028;-44
2023/05/23 01:12:02;;;;;;;7.80;4.03;;;16.20;99.90;;;;;;5073022;28;20103;-46
2023/05/23 01:14:36;;;;;;;6.75;3.90;;;16.00;99.90;;;;;;5065680;28;20041;-45
2023/05/23 01:17:25;;;;;;;7.45;4.60;;;15.80;99.90;;;;;;5071981;28;20031;-44
2023/05/23 01:20:14;;;;;;;6.22;4.18;;;15.80;99.90;;;;;;5071623;28;20111;-46
2023/05/23 01:23:01;;;;;;;8.48;4.78;;;15.90;99.90;;;;;;5069180;28;20068;-46
2023/05/23 01:26:04;;;;;;;6.88;4.45;;;16.10;99.90;;;;;;5073782;28;20025;-46
2023/05/23 01:28:39;;;;;;;6.25;4.57;;;16.10;99.90;;;;;;5072544;28;20119;-45
2023/05/23 01:31:09;;;;;;;5.93;3.88;;;16.20;99.90;;;;;;5072727;28;20113;-44
2023/05/23 01:33:36;;;;;;;6.07;4.22;;;16.30;99.90;;;;;;5072702;28;20064;-45
2023/05/23 01:36:03;;;;;;;6.28;4.32;;;16.30;99.90;;;;;;5073016;28;20034;-46
2023/05/23 01:38:28;;;;;;;6.72;4.05;;;16.20;99.90;;;;;;5072486;28;20040;-45
2023/05/23 01:40:54;;;;;;;6.35;4.28;;;16.20;99.90;;;;;;5067897;28;20102;-45
2023/05/23 01:43:21;;;;;;;6.22;4.38;;;16.30;99.90;;;;;;5072935;28;20115;-44
2023/05/23 01:45:48;;;;;;;7.43;4.70;;;16.20;99.90;;;;;;5072162;28;20029;-43
2023/05/23 01:48:15;;;;;;;8.75;4.43;;;16.30;99.90;;;;;;5072812;28;20377;-44
2023/05/23 01:50:46;;;;;;;7.90;4.47;;;16.40;99.90;;;;;;5072170;28;20044;-46
2023/05/23 01:53:14;;;;;;;7.43;4.07;;;16.10;99.90;;;;;;5069852;28;20134;-46
2023/05/23 01:55:41;;;;;;;7.57;4.18;;;16.10;99.90;;;;;;5069830;28;20131;-46
2023/05/23 01:58:07;;;;;;;6.25;4.60;;;16.00;99.90;;;;;;5070156;28;20107;-45
2023/05/23 02:00:33;;;;;;;5.45;4.10;;;16.10;99.90;;;;;;5087527;28;20053;-46
2023/05/23 02:02:58;;;;;;;9.10;4.70;;;16.10;99.90;;;;;;5072936;28;20036;-45
2023/05/23 02:05:24;;;;;;;7.57;4.35;;;16.20;99.90;;;;;;5072784;28;20033;-45
2023/05/23 02:07:50;;;;;;;6.65;4.55;;;16.20;99.90;;;;;;5066834;28;20032;-44
2023/05/23 02:10:18;;;;;;;5.72;4.03;;;16.20;99.90;;;;;;5069093;28;20017;-44
2023/05/23 02:12:43;;;;;;;6.80;4.30;;;16.20;99.90;;;;;;5070510;28;20372;-44
2023/05/23 02:15:09;;;;;;;6.15;4.47;;;16.20;99.90;;;;;;5065500;28;20048;-45
2023/05/23 02:17:37;;;;;;;5.20;4.00;;;16.20;99.90;;;;;;5069803;28;20043;-45
2023/05/23 02:20:05;;;;;;;5.32;4.18;;;16.20;99.90;;;;;;5071804;28;20074;-43
2023/05/23 02:22:30;;;;;;;7.22;4.00;;;16.20;99.90;;;;;;5067392;28;20040;-45
2023/05/23 02:24:56;;;;;;;7.80;4.68;;;16.20;99.90;;;;;;5087377;28;20036;-44
2023/05/23 02:27:22;;;;;;;8.45;4.70;;;16.10;99.90;;;;;;5067461;28;20396;-44
2023/05/23 02:29:48;;;;;;;6.75;4.25;;;16.00;99.90;;;;;;5071576;28;20024;-45
2023/05/23 02:32:14;;;;;;;7.00;5.45;;;15.90;99.90;;;;;;5071232;28;20028;-44
2023/05/23 02:34:40;;;;;;;8.57;5.50;;;16.00;99.90;;;;;;5086844;28;20048;-44
2023/05/23 02:37:06;;;;;;;7.70;5.35;;;16.00;99.90;;;;;;5072478;28;20124;-43
2023/05/23 02:39:33;;;;;;;7.20;4.97;;;16.10;99.90;;;;;;5067184;28;20127;-45
2023/05/23 02:41:59;;;;;;;8.45;5.20;;;16.10;99.90;;;;;;5069499;28;20037;-45
2023/05/23 02:44:25;;;;;;;8.50;5.75;;;16.00;99.90;;;;;;5071858;28;20028;-45
2023/05/23 02:46:50;;;;;;;9.27;5.38;;;16.00;99.90;;;;;;5072279;28;20025;-44
2023/05/23 02:49:16;;;;;;;7.38;5.00;;;16.00;99.90;;;;;;5071811;28;20032;-44
2023/05/23 02:51:42;;;;;;;9.15;5.13;;;15.90;99.90;;;;;;5071958;28;20025;-44
2023/05/23 02:54:07;;;;;;;7.70;5.20;;;15.90;99.90;;;;;;5067491;28;20041;-44
2023/05/23 02:56:33;;;;;;;6.35;4.72;;;15.90;99.90;;;;;;5069343;28;20048;-44
2023/05/23 02:58:59;;;;;;;7.95;4.57;;;15.80;99.90;;;;;;5072334;28;20044;-45
2023/05/23 03:01:24;;;;;;;10.75;4.95;;;15.90;99.90;;;;;;5086499;28;20491;-45
2023/05/23 03:03:50;;;;;;;7.15;4.95;;;15.90;99.90;;;;;;5070281;28;20055;-45
2023/05/23 03:06:16;;;;;;;7.07;4.50;;;15.90;99.90;;;;;;5070610;28;20031;-43
2023/05/23 03:08:42;;;;;;;6.43;4.25;;;16.00;99.90;;;;;;5070585;28;20041;-45
2023/05/23 03:11:08;;;;;;;7.57;5.00;;;16.00;99.90;;;;;;5086398;28;20037;-44
2023/05/23 03:13:34;;;;;;;7.45;4.68;;;15.70;99.90;;;;;;5071498;28;20115;-45
2023/05/23 03:16:00;;;;;;;7.35;4.43;;;15.70;99.90;;;;;;5071573;28;20036;-44
2023/05/23 03:18:26;;;;;;;5.97;4.35;;;15.70;99.90;;;;;;5071595;28;20059;-44
2023/05/23 03:20:52;;;;;;;8.50;3.83;;;15.30;99.90;;;;;;5071833;28;20025;-43
2023/05/23 03:23:18;;;;;;;5.53;4.20;;;15.10;99.90;;;;;;5071290;28;20028;-46
2023/05/23 03:25:43;;;;;;;7.43;4.15;;;14.90;99.90;;;;;;5072476;28;20029;-45
2023/05/23 03:28:11;;;;;;;8.55;4.30;;;15.00;99.90;;;;;;5090034;28;20123;-46
2023/05/23 03:30:37;;;;;;;4.75;3.58;;;15.00;99.90;;;;;;5074249;28;20055;-44
2023/05/23 03:33:03;;;;;;;6.63;3.95;;;;;;;;;;5042522;28;20480;-44
2023/05/23 03:35:29;;;;;;;5.32;4.05;;;14.10;99.90;;;;;;5075339;28;20511;-46
2023/05/23 03:37:55;;;;;;;6.38;3.63;;;;;;;;;;5090074;28;20072;-45
2023/05/23 03:40:21;;;;;;;7.20;3.80;;;13.90;99.90;;;;;;5072260;28;20127;-44
2023/05/23 03:43:00;;;;;;;5.35;4.00;;;13.80;99.90;;;;;;5071891;28;20174;-47
2023/05/23 03:45:26;;;;;;;4.30;3.25;;;;;;;;;;5062654;28;20117;-44
2023/05/23 03:47:52;;;;;;;2.95;2.58;;;13.50;99.90;;;;;;5090098;28;20139;-46
2023/05/23 03:50:18;;;;;;;4.80;3.30;;;13.40;99.90;;;;;;5075264;28;20069;-45
2023/05/23 03:52:43;;;;;;;4.38;3.40;;;13.40;99.90;;;;;;5070874;28;20101;-45
2023/05/23 03:55:10;;;;;;;4.00;2.97;;;13.40;99.90;;;;;;5071691;28;20467;-44
2023/05/23 03:57:35;;;;;;;5.90;3.55;;;13.30;99.90;;;;;;5070746;28;20503;-44
2023/05/23 04:00:05;;;;;;;5.30;2.95;;;13.30;99.90;;;;;;5090585;28;20048;-46
2023/05/23 04:02:31;;;;;;;6.60;3.17;;;13.30;99.90;;;;;;5074612;28;20028;-45
2023/05/23 04:04:57;;;;;;;4.32;3.38;;;13.40;99.90;;;;;;5074612;28;20353;-46
2023/05/23 04:07:25;;;;;;;5.60;3.67;;;13.60;99.90;;;;;;5074552;28;20095;-46
2023/05/23 04:09:51;;;;;;;6.10;3.85;;;13.80;99.90;;;;;;5074580;28;20067;-44
2023/05/23 04:12:17;;;;;;;7.15;3.75;;;14.00;99.90;;;;;;5029938;28;20103;-46
2023/05/23 04:14:43;;;;;;;5.20;3.72;;;14.00;99.90;;;;;;5085688;28;20392;-46
2023/05/23 04:17:08;;;;;;;5.15;3.63;;;14.00;99.90;;;;;;5071805;28;20561;-46
2023/05/23 04:19:34;;;;;;;8.02;4.18;;;13.80;99.90;;;;;;5074547;28;20024;-44
2023/05/23 04:22:00;;;;;;;4.38;3.67;;;13.90;99.90;;;;;;5074149;28;20082;-47
2023/05/23 04:24:26;;;;;;;6.47;3.63;;;14.00;99.90;;;;;;5074763;28;20036;-47
2023/05/23 04:26:51;;;;;;;5.93;3.72;;;14.00;99.90;;;;;;5088898;28;20036;-47
2023/05/23 04:29:17;;;;;;;6.63;4.07;;;14.10;99.90;;;;;;5074845;28;20465;-45
2023/05/23 04:31:44;;;;;;;9.45;4.68;;;14.20;99.90;;;;;;5068508;28;20033;-45
2023/05/23 04:34:10;;;;;;;6.57;4.20;;;14.30;99.90;;;;;;5063344;28;20491;-47
2023/05/23 04:36:36;;;;;;;5.78;4.10;;;14.40;99.90;;;;;;5071106;28;20032;-45
2023/05/23 04:39:04;;;;;;;5.57;3.55;;;14.50;99.90;;;;;;5068725;28;20127;-46
2023/05/23 04:41:30;;;;;;;8.18;4.07;;;14.70;99.90;;;;;;5070381;28;20104;-46
2023/05/23 04:43:57;;;;;;;5.15;3.53;;;14.90;99.90;;;;;;5071880;28;20032;-48
2023/05/23 04:46:26;;;;;;;5.75;3.95;;;15.10;99.90;;;;;;5064473;28;20036;-45
2023/05/23 04:48:53;;;;;;;5.40;4.10;;;15.20;99.90;;;;;;5088982;28;20033;-45
2023/05/23 04:51:20;;;;;;;5.35;4.00;;;15.40;99.90;;;;;;5071053;28;20068;-45
2023/05/23 04:53:47;;;;;;;6.35;4.03;;;15.70;99.90;;;;;;5062155;28;20079;-45
2023/05/23 04:56:13;;;;;;;5.07;3.72;;;16.10;99.90;;;;;;5048549;28;20047;-44
2023/05/23 04:58:40;;;;;;;6.43;3.95;;;16.40;99.90;;;;;;5071582;28;20481;-45
2023/05/23 05:01:08;;;;;;;6.85;3.85;;;16.70;99.90;;;;;;5067130;28;20032;-45
2023/05/23 05:03:34;;;;;;;7.28;3.67;;;17.00;99.90;;;;;;5071386;28;20040;-46
2023/05/23 05:06:00;;;;;;;6.82;3.85;;;17.20;99.90;;;;;;5073476;28;20051;-44
2023/05/23 05:08:27;;;;;;;5.20;3.75;;;17.40;99.90;;;;;;5073663;28;20484;-45
2023/05/23 05:10:54;;;;;;;5.80;4.13;;;17.50;99.90;;;;;;5068374;28;20129;-45
2023/05/23 05:13:19;;;;;;;5.97;3.95;;;17.40;99.90;;;;;;5073682;28;20063;-44
2023/05/23 05:15:46;;;;;;;5.32;4.07;;;17.50;99.90;;;;;;5071425;28;20067;-46
2023/05/23 05:18:12;;;;;;;7.05;4.40;;;17.70;99.90;;;;;;5073907;28;20037;-44
2023/05/23 05:20:38;;;;;;;7.18;4.50;;;17.90;99.90;;;;;;5070882;28;20036;-45
2023/05/23 05:23:04;;;;;;;6.47;3.78;;;18.10;99.90;;;;;;5066488;28;20029;-44
2023/05/23 05:25:34;;;;;;;6.93;4.68;;;18.30;99.90;;;;;;5068194;28;20127;-43
2023/05/23 05:28:07;;;;;;;8.98;4.80;;;18.60;99.90;;;;;;5072694;28;20120;-44
2023/05/23 05:30:34;;;;;;;9.00;5.10;;;18.80;99.90;;;;;;5072671;28;20077;-46
2023/05/23 05:33:02;;;;;;;7.07;4.07;;;18.70;99.90;;;;;;5073850;28;20040;-46
2023/05/23 05:35:31;;;;;;;6.25;4.78;;;18.90;99.90;;;;;;5071974;28;20056;-44
2023/05/23 05:37:58;;;;;;;8.10;4.13;;;18.90;99.90;;;;;;5072668;28;20063;-44
2023/05/23 05:40:23;;;;;;;9.82;5.05;;;19.10;99.90;;;;;;5069460;28;20512;-45
2023/05/23 05:42:50;;;;;;;8.82;4.90;;;;;;;;;;5072379;28;20025;-45
2023/05/23 05:45:16;;;;;;;7.10;4.50;;;;;;;;;;5067923;28;20020;-44
2023/05/23 05:47:42;;;;;;;6.03;4.47;;;19.60;99.90;;;;;;5072567;28;20492;-45
2023/05/23 05:50:09;;;;;;;7.95;5.10;;;19.60;99.90;;;;;;5071288;28;20028;-44
2023/05/23 05:52:38;;;;;;;6.68;4.57;;;19.70;99.90;;;;;;5067088;28;20175;-46
2023/05/23 05:55:10;;;;;;;6.63;4.68;;;;;;;;;;5071341;28;20395;-45
2023/05/23 05:57:39;;;;;;;8.13;4.53;;;20.00;99.90;;;;;;5066390;28;20037;-44
2023/05/23 06:00:11;;;;;;;10.73;5.40;;;;;;;;;;5073127;28;20127;-45
2023/05/23 06:02:37;;;;;;;7.43;5.35;;;;;;;;;;5067290;28;20063;-44
2023/05/23 06:05:05;;;;;;;5.85;4.53;;;;;;;;;;5071879;28;20099;-45
2023/05/23 06:07:31;;;;;;;8.75;5.43;;;;;;;;;;5047653;28;20048;-44
2023/05/23 06:09:57;;;;;;;6.88;5.13;;;20.60;99.90;;;;;;5066140;28;20108;-45
2023/05/23 06:12:22;;;;;;;9.35;4.43;;;20.80;99.90;;;;;;5064924;28;20174;-44
2023/05/23 06:14:48;;;;;;;6.78;5.25;;;;;;;;;;5068708;28;20083;-44
2023/05/23 06:17:15;;;;;;;8.85;5.75;;;;;;;;;;5073027;28;20027;-45
2023/05/23 06:19:41;;;;;;;8.32;5.50;;;;;;;;;;5072083;28;20039;-45
2023/05/23 06:22:07;;;;;;;8.30;5.30;;;;;;;;;;5069012;28;20055;-45
2023/05/23 06:24:33;;;;;;;9.27;6.10;;;;;;;;;;5087950;28;20040;-46
2023/05/23 06:26:59;;;;;;;7.28;5.30;;;;;;;;;;5071999;28;20024;-45
2023/05/23 06:29:25;;;;;;;8.48;5.78;;;;;;;;;;5069219;28;20035;-45
2023/05/23 06:31:51;;;;;;;7.28;5.07;;;21.50;99.90;;;;;;5064833;28;20107;-45
2023/05/23 06:34:17;;;;;;;8.38;5.15;;;;;;;;;;5087489;28;20460;-45
2023/05/23 06:36:42;;;;;;;7.72;5.50;;;21.50;99.90;;;;;;5064368;28;20043;-44
2023/05/23 06:39:09;;;;;;;9.63;5.50;;;;;;;;;;5071036;28;20036;-44
2023/05/23 06:41:35;;;;;;;9.48;5.47;;;21.50;99.90;;;;;;5086607;28;20395;-44
2023/05/23 06:44:00;;;;;;;7.28;5.05;;;21.70;99.90;;;;;;5071574;28;20028;-45
2023/05/23 06:46:26;;;;;;;9.48;6.35;;;21.90;99.90;;;;;;5068388;28;20383;-46
2023/05/23 06:48:52;;;;;;;7.70;5.13;;;22.10;99.90;;;;;;5070337;28;20121;-45
2023/05/23 06:51:18;;;;;;;9.48;5.60;;;22.00;99.90;;;;;;5071552;28;20024;-45
2023/05/23 06:53:44;;;;;;;6.68;5.32;;;;;;;;;;5070003;28;20044;-45
2023/05/23 06:56:10;;;;;;;6.93;5.65;;;22.50;99.90;;;;;;5066726;28;20020;-44
2023/05/23 06:58:36;;;;;;;8.38;5.60;;;;;;;;;;5068572;28;20420;-44
2023/05/23 07:01:02;;;;;;;7.55;5.40;;;22.60;99.90;;;;;;5069138;28;20037;-45
2023/05/23 07:03:27;;;;;;;7.95;4.97;;;22.80;99.90;;;;;;5075823;28;20042;-46
2023/05/23 07:05:53;;;;;;;5.97;4.43;;;22.60;99.90;;;;;;5076613;28;20035;-46
2023/05/23 07:08:19;;;;;;;8.43;3.70;;;22.90;99.90;;;;;;5076009;28;20082;-46
2023/05/23 07:10:44;;;;;;;4.57;3.78;;;23.00;99.90;;;;;;5076646;28;20029;-45
2023/05/23 07:13:10;;;;;;;6.13;3.80;;;;;;;;;;5090825;28;20032;-45
2023/05/23 07:15:36;;;;;;;6.82;4.68;;;23.40;99.90;;;;;;5075758;28;20033;-46
2023/05/23 07:18:02;;;;;;;7.55;5.07;;;23.10;99.90;;;;;;5075381;28;20386;-45
2023/05/23 07:20:28;;;;;;;5.40;4.40;;;23.10;99.90;;;;;;5069366;28;20071;-45
2023/05/23 07:22:54;;;;;;;5.78;3.08;;;23.20;99.90;;;;;;5056646;28;20040;-46
2023/05/23 07:25:22;;;;;;;6.28;4.05;;;23.10;99.90;;;;;;5070904;28;20383;-44
2023/05/23 07:27:48;;;;;;;6.18;4.25;;;;;;;;;;5073656;28;20044;-45
2023/05/23 07:30:15;;;;;;;4.63;3.88;;;23.60;99.90;;;;;;5075686;28;20036;-46
2023/05/23 07:32:41;;;;;;;5.32;4.05;;;;;;;;;;5072420;28;20084;-45
2023/05/23 07:35:07;;;;;;;5.70;3.88;;;;;;;;;;5031775;28;20048;-46
2023/05/23 07:37:33;;;;;;;5.82;3.83;;;;;;;;;;5052379;28;20044;-46
2023/05/23 07:40:00;;;;;;;4.72;3.42;;;;;;;;;;5067420;28;20033;-47
2023/05/23 07:42:26;;;;;;;5.30;4.40;;;;;;;;;;5066524;28;20033;-46
2023/05/23 07:44:52;;;;;;;6.30;3.65;;;;;;;;;;5068424;28;20041;-46
2023/05/23 07:47:18;;;;;;;6.72;4.10;;;;;;;;;;5072538;28;20032;-47
2023/05/23 07:49:46;;;;;;;4.25;3.60;;;;;;;;;;5040974;28;20049;-46
2023/05/23 07:52:12;;;;;;;5.53;3.95;;;;;;;;;;5074386;28;20480;-47
2023/05/23 07:54:38;;;;;;;8.57;3.80;;;24.90;99.90;;;;;;5072331;28;20388;-46
2023/05/23 07:57:05;;;;;;;8.35;4.22;;;25.10;99.90;;;;;;5023260;28;20046;-45
2023/05/23 07:59:31;;;;;;;4.35;3.40;;;25.10;99.90;;;;;;5072163;28;20045;-45
2023/05/23 08:01:57;;;;;;;3.78;3.20;;;25.20;99.90;;;;;;5021652;28;20032;-45
2023/05/23 08:04:22;;;;;;;5.55;3.63;;;25.40;99.90;;;;;;5089342;28;20047;-46
2023/05/23 08:06:48;;;;;;;4.22;3.33;;;;;;;;;;5074807;28;20031;-46
2023/05/23 08:09:14;;;;;;;8.15;3.20;;;25.40;99.90;;;;;;5072096;28;20393;-45
2023/05/23 08:11:40;;;;;;;5.32;3.60;;;25.40;99.90;;;;;;5068696;28;20024;-46
2023/05/23 08:14:06;;;;;;;4.60;3.33;;;25.70;99.90;;;;;;5071783;28;20049;-45
2023/05/23 08:16:33;;;;;;;4.53;3.25;;;25.80;99.90;;;;;;5072387;28;20511;-45
2023/05/23 08:18:59;;;;;;;4.80;3.38;;;26.20;99.90;;;;;;5074248;28;20056;-45
2023/05/23 08:21:25;;;;;;;3.35;2.63;;;26.00;99.90;;;;;;5075047;28;20056;-46
2023/05/23 08:23:51;;;;;;;6.32;3.00;;;26.10;99.90;;;;;;5070618;28;20029;-45
2023/05/23 08:26:16;;;;;;;3.70;2.60;;;26.50;99.90;;;;;;5066490;28;20024;-47
2023/05/23 08:28:42;;;;;;;3.55;2.28;;;26.50;99.90;;;;;;5062969;28;20036;-45
2023/05/23 08:31:08;;;;;;;4.45;1.90;;;26.10;99.90;;;;;;5070969;28;20032;-48
2023/05/23 08:33:33;;;;;;;3.47;2.22;;;26.30;99.90;;;;;;5069337;28;20024;-47
2023/05/23 08:35:59;;;;;;;3.35;2.45;;;26.50;99.90;;;;;;5066288;28;20258;-47
2023/05/23 08:38:26;;;;;;;2.78;2.40;;;26.40;99.90;;;;;;5067751;28;20028;-47
2023/05/23 08:40:52;;;;;;;4.65;2.50;;;26.20;99.90;;;;;;5073254;28;20031;-51
2023/05/23 08:43:19;;;;;;;4.70;2.45;;;26.60;99.90;;;;;;5062245;28;20028;-49
2023/05/23 08:45:46;;;;;;;3.78;1.98;;;26.90;99.90;;;;;;5067956;28;20040;-50
2023/05/23 08:48:14;;;;;;;4.60;2.03;;;27.00;99.90;;;;;;5065515;28;20040;-53
2023/05/23 08:50:44;;;;;;;3.25;1.95;;;27.00;99.90;;;;;;5084603;28;20106;-53
2023/05/23 08:53:18;;;;;;;2.50;2.22;;;27.40;99.90;;;;;;5073272;28;20488;-50
2023/05/23 08:55:50;;;;;;;2.58;2.10;;;27.40;99.90;;;;;;5071384;28;20044;-48
2023/05/23 08:58:16;;;;;;;3.15;1.83;;;;;;;;;;5071371;28;20029;-47
2023/05/23 09:00:42;;;;;;;2.65;1.90;;;27.80;99.90;;;;;;5083939;28;20175;-48
2023/05/23 09:03:08;;;;;;;4.25;2.30;;;;;;;;;;5070179;28;20127;-48
2023/05/23 09:05:35;;;;;;;2.53;1.85;;;;;;;;;;5067572;28;20036;-47
2023/05/23 09:08:01;;;;;;;2.60;2.00;;;;;;;;;;5088560;28;20067;-46
2023/05/23 09:10:28;;;;;;;2.95;1.67;;;;;;;;;;5068131;28;20438;-48
2023/05/23 09:12:55;;;;;;;2.13;1.70;;;;;;;;;;5064679;28;20044;-48
2023/05/23 09:15:24;;;;;;;2.58;1.95;;;28.30;99.90;;;;;;5072970;28;20514;-47
2023/05/23 09:17:50;;;;;;;1.95;1.70;;;28.30;99.90;;;;;;5072610;28;20028;-47
2023/05/23 09:20:17;;;;;;;2.25;1.83;;;;;;;;;;5070204;28;20039;-48
2023/05/23 09:22:47;;;;;;;2.42;2.10;;;28.30;99.90;;;;;;5069160;28;20078;-47
2023/05/23 09:25:13;;;;;;;3.35;2.50;;;28.30;99.60;;;;;;5049346;28;20033;-46
2023/05/23 09:27:40;;;;;;;3.60;2.13;;;28.40;99.50;;;;;;5066040;28;20112;-48
2023/05/23 09:30:12;;;;;;;5.72;2.10;;;28.50;99.90;;;;;;5063987;28;20410;-48
2023/05/23 09:32:39;;;;;;;4.57;2.33;;;28.70;99.00;;;;;;5067145;28;20082;-47
2023/05/23 09:35:07;;;;;;;4.13;2.00;;;28.70;99.90;;;;;;5071505;28;20150;-47
2023/05/23 09:37:42;;;;;;;3.30;2.20;;;28.60;98.90;;;;;;5069641;28;20646;-49
2023/05/23 09:40:09;;;;;;;3.80;2.20;;;28.80;99.90;;;;;;5066362;28;20039;-46
2023/05/23 09:42:35;;;;;;;7.32;3.17;;;;;;;;;;5072391;28;20468;-47
2023/05/23 09:45:02;;;;;;;2.30;1.80;;;29.20;98.10;;;;;;5072291;28;20024;-47
2023/05/23 09:47:28;;;;;;;2.63;1.85;;;28.90;95.90;;;;;;5071023;28;20070;-47
2023/05/23 09:49:54;;;;;;;4.47;1.88;;;29.20;97.20;;;;;;5064906;28;20083;-48
2023/05/23 09:52:19;;;;;;;1.83;1.58;;;29.30;95.80;;;;;;5072322;28;20021;-47
2023/05/23 09:54:47;;;;;;;2.28;1.67;;;29.20;93.90;;;;;;5071647;28;20107;-47
2023/05/23 09:57:15;;;;;;;2.28;1.75;;;29.30;94.20;;;;;;5072843;28;20030;-47
2023/05/23 09:59:49;;;;;;;3.72;1.75;;;29.70;94.70;;;;;;5071804;28;20048;-47
2023/05/23 10:02:18;;;;;;;2.13;1.63;;;;;;;;;;5072885;28;20020;-47
2023/05/23 10:04:44;;;;;;;3.53;2.00;;;;;;;;;;5065302;28;20376;-49
2023/05/23 10:07:14;;;;;;;2.22;1.88;;;;;;;;;;5072633;28;20016;-47
2023/05/23 10:09:42;;;;;;;3.10;1.52;;;;;;;;;;5070026;28;20503;-47
2023/05/23 10:12:20;;;;;;;3.42;1.77;;;28.50;99.10;;;;;;5065501;28;20107;-48
2023/05/23 10:14:51;;;;;;;3.90;1.73;;;;;;;;;;5080109;28;20076;-46
2023/05/23 10:17:49;;;;;;;2.92;2.00;;;28.90;99.90;;;;;;5062929;28;20044;-48
2023/05/23 10:20:16;;;;;;;2.08;1.70;;;;;;;;;;5064812;28;20051;-46
2023/05/23 10:22:42;;;;;;;2.60;2.05;;;;;;;;;;5071668;28;20411;-47
2023/05/23 10:25:09;;;;;;;2.92;1.63;;;;;;;;;;5070980;28;20432;-47
2023/05/23 10:27:39;;;;;;;2.92;1.85;;;30.00;94.20;;;;;;5071398;28;20052;-48
2023/05/23 10:30:08;;;;;;;2.58;1.42;;;;;;;;;;5066097;28;20045;-47
2023/05/23 10:32:35;;;;;;;4.78;1.83;;;;;;;;;;5035306;28;20044;-46
2023/05/23 10:35:07;;;;;;;2.75;1.85;;;;;;;;;;5064943;28;20094;-50
2023/05/23 10:37:46;;;;;;;2.47;1.80;;;;;;;;;;5032707;28;20443;-50
2023/05/23 10:40:12;;;;;;;2.22;1.60;;;;;;;;;;5019226;28;20550;-50
2023/05/23 10:42:45;;;;;;;5.90;1.73;;;;;;;;;;5065526;28;20041;-48
2023/05/23 10:45:14;;;;;;;2.42;1.80;;;;;;;;;;5031437;28;20040;-49
2023/05/23 10:47:40;;;;;;;2.13;1.85;;;;;;;;;;5063850;28;20093;-48
2023/05/23 10:50:07;;;;;;;3.05;2.20;;;;;;;;;;5062685;28;20131;-49
2023/05/23 10:52:39;;;;;;;2.10;1.58;;;;;;;;;;5060251;28;20433;-49
2023/05/23 10:55:12;;;;;;;4.10;1.77;;;;;;;;;;5069830;28;20075;-48
2023/05/23 10:57:42;;;;;;;2.42;1.63;;;;;;;;;;5068386;28;20067;-51
2023/05/23 11:00:12;;;;;;;1.85;1.42;;;;;;;;;;5061643;28;20119;-49
2023/05/23 11:02:38;;;;;;;2.42;1.40;;;;;;;;;;5065982;28;20028;-48
2023/05/23 11:05:32;;;;;;;2.05;1.83;;;;;;;;;;5070783;28;20032;-49
2023/05/23 11:08:08;;;;;;;2.67;1.60;;;;;;;;;;5065372;28;20102;-48
2023/05/23 11:10:54;;;;;;;5.40;1.70;;;;;;;;;;5071747;28;20036;-49
2023/05/23 11:13:21;;;;;;;4.53;1.52;;;;;;;;;;5069970;28;20016;-50
2023/05/23 11:15:50;;;;;;;2.58;1.85;;;;;;;;;;5071433;28;20591;-49
2023/05/23 11:18:29;;;;;;;2.58;1.73;;;;;;;;;;5064187;28;20115;-49
2023/05/23 11:20:58;;;;;;;1.95;1.30;;;;;;;;;;5069852;28;20033;-49
2023/05/23 11:23:29;;;;;;;2.75;1.60;;;;;;;;;;5086738;28;20400;-48
2023/05/23 11:25:55;;;;;;;2.03;1.70;;;;;;;;;;5071261;28;20025;-50
2023/05/23 11:28:22;;;;;;;2.00;1.40;;;;;;;;;;5083981;28;20032;-50
2023/05/23 11:30:49;;;;;;;2.63;1.50;;;;;;;;;;5086314;28;20072;-48
2023/05/23 11:33:16;;;;;;;2.83;1.50;;;;;;;;;;5068657;28;20040;-49
2023/05/23 11:35:43;;;;;;;1.65;1.33;;;;;;;;;;5065259;28;20044;-49
2023/05/23 11:38:10;;;;;;;3.53;1.80;;;;;;;;;;5066565;28;20032;-48
2023/05/23 11:40:38;;;;;;;1.85;1.33;;;;;;;;;;5070755;28;20110;-51
2023/05/23 11:43:05;;;;;;;2.53;1.52;;;;;;;;;;5068595;28;20032;-48
2023/05/23 11:45:32;;;;;;;2.35;1.40;;;;;;;;;;5067305;28;20115;-50
2023/05/23 11:47:58;;;;;;;1.83;1.35;;;;;;;;;;5070799;28;20556;-53
2023/05/23 11:50:24;;;;;;;1.90;1.13;;;;;;;;;;5074895;28;20085;-47
2023/05/23 11:52:51;;;;;;;1.92;1.67;;;;;;;;;;5089788;28;20124;-50
2023/05/23 11:55:18;;;;;;;2.35;1.60;;;;;;;;;;5074504;28;20122;-49
2023/05/23 11:57:45;;;;;;;2.47;1.63;;;;;;;;;;5074722;28;20040;-51
2023/05/23 12:00:12;;;;;;;4.10;1.45;;;;;;;;;;5069918;28;20056;-49
2023/05/23 12:02:39;;;;;;;2.25;1.52;;;;;;;;;;5063415;28;20048;-49
2023/05/23 12:05:12;;;;;;;3.15;1.88;;;;;;;;;;5068749;28;20029;-48
2023/05/23 12:07:42;;;;;;;3.65;1.58;;;;;;;;;;5071440;28;20097;-49
2023/05/23 12:10:11;;;;;;;1.98;1.45;;;;;;;;;;5072194;28;20024;-49
2023/05/23 12:12:37;;;;;;;4.43;1.80;;;;;;;;;;5064819;28;20039;-50
2023/05/23 12:15:04;;;;;;;1.83;1.50;;;;;;;;;;5074784;28;20048;-50
2023/05/23 12:17:31;;;;;;;1.90;1.38;;;;;;;;;;5066142;28;20041;-49
2023/05/23 12:19:58;;;;;;;2.60;1.80;;;;;;;;;;5071814;28;20522;-50
2023/05/23 12:22:24;;;;;;;1.80;1.25;;;;;;;;;;5089789;28;20088;-50
2023/05/23 12:24:54;;;;;;;2.00;1.50;;;33.00;88.20;;;;;;5073587;28;20170;-49
2023/05/23 12:27:26;;;;;;;2.22;1.75;;;;;;;;;;5073640;28;20099;-48
2023/05/23 12:30:04;;;;;;;2.38;1.70;;;;;;;;;;5072360;28;20081;-49
2023/05/23 12:32:30;;;;;;;1.98;1.63;;;33.00;90.10;;;;;;5069758;28;20082;-48
2023/05/23 12:34:55;;;;;;;2.72;1.67;;;33.10;87.90;;;;;;5074196;28;20036;-48
2023/05/23 12:37:23;;;;;;;2.58;1.95;;;33.00;89.10;;;;;;5073997;28;20035;-50
2023/05/23 12:39:49;;;;;;;1.70;1.45;;;32.90;89.70;;;;;;5071282;28;20037;-48
2023/05/23 12:42:15;;;;;;;2.55;1.55;;;33.10;88.50;;;;;;5065565;28;20021;-48
2023/05/23 12:44:42;;;;;;;2.90;1.48;;;33.00;86.20;;;;;;5073637;28;20073;-48
2023/05/23 12:47:09;;;;;;;3.28;1.73;;;32.70;87.60;;;;;;5065180;28;20130;-47
2023/05/23 12:49:35;;;;;;;3.90;1.70;;;;;;;;;;5073228;28;20032;-47
2023/05/23 12:52:02;;;;;;;3.08;1.67;;;;;;;;;;5071615;28;20536;-47
2023/05/23 12:54:28;;;;;;;1.67;1.35;;;;;;;;;;5088997;28;20056;-47
2023/05/23 12:56:54;;;;;;;2.20;1.45;;;32.70;85.50;;;;;;5073008;28;20040;-47
2023/05/23 12:59:20;;;;;;;2.28;1.40;;;;;;;;;;5070601;28;20047;-47
2023/05/23 13:01:46;;;;;;;3.78;1.92;;;;;;;;;;5073468;28;20037;-48
2023/05/23 13:04:12;;;;;;;3.15;1.90;;;;;;;;;;5072285;28;20032;-47
2023/05/23 13:06:38;;;;;;;3.90;2.03;;;;;;;;;;5067549;28;20032;-48
2023/05/23 13:09:04;;;;;;;2.60;1.60;;;;;;;;;;5072952;28;20384;-48
2023/05/23 13:11:31;;;;;;;2.17;1.70;;;;;;;;;;5085677;28;20043;-48
2023/05/23 13:13:57;;;;;;;2.83;1.70;;;;;;;;;;5054253;28;20028;-47
2023/05/23 13:16:23;;;;;;;3.53;1.77;;;;;;;;;;5081218;28;20044;-47
2023/05/23 13:18:49;;;;;;;4.22;1.85;;;;;;;;;;5059903;28;20508;-48
2023/05/23 13:21:15;;;;;;;3.30;1.77;;;;;;;;;;5068165;28;20536;-49
2023/05/23 13:23:41;;;;;;;2.45;1.95;;;;;;;;;;5084918;28;20118;-48
2023/05/23 13:26:07;;;;;;;2.35;1.50;;;;;;;;;;5061434;28;20067;-49